createdAt,value
2023-01-22T00:01:16.513Z,3.30
2023-01-22T00:03:46.735Z,3.03
2023-01-22T00:06:15.578Z,2.90
2023-01-22T00:08:45.073Z,3.08
2023-01-22T00:11:13.557Z,3.30
2023-01-22T00:13:42.315Z,2.83
2023-01-22T00:16:13.194Z,2.90
2023-01-22T00:18:41.442Z,3.15
2023-01-22T00:21:09.587Z,3.22
2023-01-22T00:23:38.699Z,2.85
2023-01-22T00:26:11.335Z,2.55
2023-01-22T00:28:41.693Z,2.97
2023-01-22T00:31:11.356Z,3.00
2023-01-22T00:33:40.457Z,2.80
2023-01-22T00:36:10.992Z,2.55
2023-01-22T00:38:39.184Z,2.38
2023-01-22T00:41:10.393Z,2.45
2023-01-22T00:43:39.609Z,2.97
2023-01-22T00:46:08.797Z,2.50
2023-01-22T00:48:37.092Z,2.97
2023-01-22T00:51:13.151Z,2.50
2023-01-22T00:53:41.549Z,2.70
2023-01-22T00:56:12.645Z,2.50
2023-01-22T00:58:40.931Z,2.67
2023-01-22T01:01:09.773Z,2.50
2023-01-22T01:03:38.361Z,2.20
2023-01-22T01:06:09.439Z,2.50
2023-01-22T01:08:39.509Z,2.38
2023-01-22T01:11:12.959Z,2.58
2023-01-22T01:13:43.122Z,2.55
2023-01-22T01:16:15.103Z,2.40
2023-01-22T01:18:43.425Z,2.13
2023-01-22T01:21:12.115Z,2.13
2023-01-22T01:23:40.688Z,2.15
2023-01-22T01:26:12.039Z,2.30
2023-01-22T01:28:41.580Z,2.25
2023-01-22T01:31:11.809Z,2.10
2023-01-22T01:33:40.335Z,2.17
2023-01-22T01:36:12.022Z,2.10
2023-01-22T01:38:40.490Z,2.15
2023-01-22T01:41:09.266Z,2.10
2023-01-22T01:43:38.812Z,1.90
2023-01-22T01:46:16.916Z,2.13
2023-01-22T01:48:47.746Z,2.55
2023-01-22T01:51:18.412Z,1.90
2023-01-22T01:53:50.010Z,1.88
2023-01-22T01:56:21.792Z,2.05
2023-01-22T01:58:54.910Z,1.60
2023-01-22T02:01:24.239Z,2.13
2023-01-22T02:03:52.690Z,2.17
2023-01-22T02:06:21.499Z,2.08
2023-01-22T02:08:50.796Z,2.00
2023-01-22T02:11:20.509Z,1.93
2023-01-22T02:13:53.707Z,1.98
2023-01-22T02:16:21.948Z,1.98
2023-01-22T02:18:50.733Z,1.55
2023-01-22T02:21:35.695Z,1.80
2023-01-22T02:24:05.216Z,2.10
2023-01-22T02:26:33.458Z,1.67
2023-01-22T02:29:02.183Z,1.65
2023-01-22T02:31:31.014Z,1.90
2023-01-22T02:33:59.600Z,1.70
2023-01-22T02:36:28.046Z,2.00
2023-01-22T02:38:58.000Z,1.90
2023-01-22T02:41:26.687Z,1.60
2023-01-22T02:43:55.461Z,1.92
2023-01-22T02:46:25.914Z,1.77
2023-01-22T02:48:54.417Z,1.65
2023-01-22T02:51:23.160Z,1.80
2023-01-22T02:53:51.747Z,1.80
2023-01-22T02:56:21.945Z,2.00
2023-01-22T02:58:50.439Z,1.67
2023-01-22T03:01:22.703Z,1.90
2023-01-22T03:03:52.610Z,2.05
2023-01-22T03:06:22.002Z,1.70
2023-01-22T03:08:50.964Z,2.08
2023-01-22T03:11:20.813Z,1.60
2023-01-22T03:14:06.936Z,1.65
2023-01-22T03:16:52.943Z,1.63
2023-01-22T03:19:39.452Z,1.58
2023-01-22T03:22:08.176Z,1.40
2023-01-22T03:24:36.821Z,1.75
2023-01-22T03:27:06.721Z,1.45
2023-01-22T03:29:38.634Z,1.33
2023-01-22T03:32:07.526Z,1.73
2023-01-22T03:34:36.503Z,1.92
2023-01-22T03:37:04.978Z,1.55
2023-01-22T03:39:33.799Z,1.70
2023-01-22T03:42:02.502Z,1.67
2023-01-22T03:44:32.371Z,1.77
2023-01-22T03:47:00.818Z,1.38
2023-01-22T03:49:29.293Z,1.55
2023-01-22T03:51:57.983Z,1.38
2023-01-22T03:54:26.727Z,1.35
2023-01-22T03:56:55.196Z,1.67
2023-01-22T03:59:23.869Z,1.15
2023-01-22T04:01:53.818Z,1.30
2023-01-22T04:04:22.281Z,1.35
2023-01-22T04:06:50.773Z,1.50
2023-01-22T04:09:19.330Z,1.30
2023-01-22T04:11:48.142Z,1.50
2023-01-22T04:14:16.693Z,1.05
2023-01-22T04:16:45.224Z,1.30
2023-01-22T04:19:15.233Z,1.25
2023-01-22T04:21:43.741Z,1.30
2023-01-22T04:24:12.225Z,1.38
2023-01-22T04:26:40.692Z,1.30
2023-01-22T04:29:09.154Z,1.30
2023-01-22T04:31:37.719Z,1.42
2023-01-22T04:34:06.231Z,1.20
2023-01-22T04:36:36.084Z,1.38
2023-01-22T04:39:04.608Z,1.35
2023-01-22T04:41:33.102Z,1.17
2023-01-22T04:44:01.573Z,1.10
2023-01-22T04:46:30.149Z,0.88
2023-01-22T04:48:58.628Z,1.20
2023-01-22T04:51:27.153Z,1.30
2023-01-22T04:53:57.083Z,1.40
2023-01-22T04:56:25.545Z,1.20
2023-01-22T04:58:54.010Z,1.20
2023-01-22T05:01:22.565Z,1.02
2023-01-22T05:03:51.045Z,1.15
2023-01-22T05:06:19.521Z,1.33
2023-01-22T05:08:47.960Z,1.10
2023-01-22T05:11:17.807Z,1.05
2023-01-22T05:13:46.243Z,1.13
2023-01-22T05:16:14.724Z,0.90
2023-01-22T05:18:43.195Z,0.82
2023-01-22T05:21:14.117Z,1.20
2023-01-22T05:23:43.702Z,1.10
2023-01-22T05:26:12.377Z,0.93
2023-01-22T05:28:42.240Z,0.90
2023-01-22T05:31:11.341Z,0.93
2023-01-22T05:33:41.100Z,0.80
2023-01-22T05:36:12.717Z,0.90
2023-01-22T05:38:41.156Z,0.85
2023-01-22T05:41:09.835Z,1.10
2023-01-22T05:43:39.036Z,1.08
2023-01-22T05:46:10.032Z,0.80
2023-01-22T05:48:38.533Z,0.63
2023-01-22T05:51:08.174Z,0.70
2023-01-22T05:53:36.870Z,1.10
2023-01-22T05:56:06.378Z,0.90
2023-01-22T05:58:35.299Z,0.65
2023-01-22T06:01:03.795Z,0.70
2023-01-22T06:03:33.770Z,1.25
2023-01-22T06:06:03.205Z,2.05
2023-01-22T06:08:34.084Z,1.80
2023-01-22T06:11:02.989Z,1.60
2023-01-22T06:13:31.625Z,1.50
2023-01-22T06:16:00.289Z,1.40
2023-01-22T06:18:29.337Z,1.63
2023-01-22T06:21:01.501Z,2.45
2023-01-22T06:23:30.072Z,3.28
2023-01-22T06:25:59.292Z,3.42
2023-01-22T06:28:27.787Z,3.60
2023-01-22T06:30:57.773Z,3.45
2023-01-22T06:35:55.546Z,2.75
2023-01-22T06:38:25.729Z,2.30
2023-01-22T06:40:54.199Z,2.22
2023-01-22T06:43:22.955Z,2.33
2023-01-22T06:45:51.395Z,2.20
2023-01-22T06:48:19.857Z,2.00
2023-01-22T06:50:48.400Z,1.83
2023-01-22T06:53:16.967Z,1.70
2023-01-22T06:55:46.809Z,1.50
2023-01-22T06:58:15.629Z,1.65
2023-01-22T07:00:44.077Z,1.33
2023-01-22T07:03:13.503Z,1.73
2023-01-22T07:05:41.940Z,1.27
2023-01-22T07:08:10.608Z,1.90
2023-01-22T07:10:39.041Z,1.60
2023-01-22T07:13:10.543Z,1.80
2023-01-22T07:15:39.001Z,1.55
2023-01-22T07:18:07.569Z,1.70
2023-01-22T07:20:36.028Z,1.05
2023-01-22T07:23:04.609Z,1.20
2023-01-22T07:25:33.041Z,1.10
2023-01-22T07:28:01.919Z,1.23
2023-01-22T07:30:32.047Z,1.38
2023-01-22T07:33:00.924Z,1.20
2023-01-22T07:35:29.633Z,0.90
2023-01-22T07:37:59.449Z,1.10
2023-01-22T07:40:28.305Z,0.95
2023-01-22T07:42:57.448Z,0.77
2023-01-22T07:45:26.953Z,1.00
2023-01-22T07:47:57.667Z,0.80
2023-01-22T07:50:27.211Z,0.70
2023-01-22T07:52:55.936Z,0.70
2023-01-22T07:55:24.676Z,0.82
2023-01-22T07:57:59.572Z,0.70
2023-01-22T08:00:28.207Z,0.60
2023-01-22T08:02:58.056Z,0.80
2023-01-22T08:05:26.525Z,0.68
2023-01-22T08:07:55.016Z,0.68
2023-01-22T08:10:23.500Z,0.60
2023-01-22T08:12:51.993Z,0.60
2023-01-22T08:15:20.558Z,0.70
2023-01-22T08:17:51.172Z,0.70
2023-01-22T08:20:21.733Z,0.70
2023-01-22T08:22:50.252Z,0.82
2023-01-22T08:25:18.756Z,0.80
2023-01-22T08:27:47.241Z,0.80
2023-01-22T08:30:16.023Z,0.60
2023-01-22T08:32:45.988Z,0.85
2023-01-22T08:35:14.945Z,0.77
2023-01-22T08:37:45.075Z,0.70
2023-01-22T08:42:43.143Z,0.53
2023-01-22T08:45:12.052Z,0.80
2023-01-22T08:47:40.587Z,1.10
2023-01-22T08:50:09.654Z,0.60
2023-01-22T08:52:38.135Z,0.60
2023-01-22T08:55:10.876Z,0.60
2023-01-22T08:57:39.577Z,0.45
2023-01-22T09:00:11.260Z,0.70
2023-01-22T09:02:39.733Z,0.85
2023-01-22T09:05:08.865Z,0.90
2023-01-22T09:07:37.347Z,0.60
2023-01-22T09:10:08.494Z,0.60
2023-01-22T09:12:38.131Z,0.50
2023-01-22T09:15:07.301Z,0.45
2023-01-22T09:17:35.793Z,0.60
2023-01-22T09:20:05.128Z,0.60
2023-01-22T09:22:33.359Z,0.77
2023-01-22T09:25:01.854Z,0.70
2023-01-22T09:27:30.336Z,0.70
2023-01-22T09:30:00.048Z,0.60
2023-01-22T09:32:28.559Z,0.63
2023-01-22T09:34:57.064Z,0.70
2023-01-22T09:37:26.337Z,0.60
2023-01-22T09:39:55.013Z,0.90
2023-01-22T09:42:27.202Z,0.68
2023-01-22T09:44:57.849Z,0.70
2023-01-22T09:47:34.633Z,0.60
2023-01-22T09:50:06.617Z,0.50
2023-01-22T09:52:36.518Z,0.55
2023-01-22T09:55:07.093Z,0.82
2023-01-22T09:57:35.537Z,0.70
2023-01-22T10:00:04.728Z,0.93
2023-01-22T10:02:40.194Z,0.63
2023-01-22T10:05:30.609Z,0.90
2023-01-22T10:08:03.499Z,0.80
2023-01-22T10:10:32.695Z,0.70
2023-01-22T10:13:11.013Z,0.80
2023-01-22T10:15:39.485Z,0.50
2023-01-22T10:18:19.478Z,0.95
2023-01-22T10:20:48.095Z,1.75
2023-01-22T10:23:18.783Z,1.50
2023-01-22T10:25:47.756Z,1.45
2023-01-22T10:28:16.689Z,1.70
2023-01-22T10:30:48.570Z,1.58
2023-01-22T10:33:20.367Z,1.50
2023-01-22T10:35:49.648Z,1.45
2023-01-22T10:38:24.769Z,1.37
2023-01-22T10:41:00.689Z,1.17
2023-01-22T10:43:33.995Z,1.23
2023-01-22T10:46:06.096Z,1.23
2023-01-22T10:48:36.071Z,1.13
2023-01-22T10:51:10.139Z,1.27
2023-01-22T10:53:39.487Z,1.08
2023-01-22T10:56:12.330Z,1.10
2023-01-22T10:58:41.996Z,1.30
2023-01-22T11:01:23.866Z,1.10
2023-01-22T11:03:53.794Z,1.17
2023-01-22T11:06:24.733Z,1.10
2023-01-22T11:08:54.505Z,1.10
2023-01-22T11:11:30.394Z,1.70
2023-01-22T11:14:02.924Z,1.15
2023-01-22T11:16:34.319Z,0.98
2023-01-22T11:19:07.185Z,1.20
2023-01-22T11:21:37.422Z,1.10
2023-01-22T11:24:07.461Z,1.00
2023-01-22T11:26:42.791Z,1.02
2023-01-22T11:29:17.164Z,1.17
2023-01-22T11:31:55.557Z,0.90
2023-01-22T11:34:33.578Z,0.88
2023-01-22T11:37:06.936Z,1.30
2023-01-22T11:39:42.510Z,1.35
2023-01-22T11:42:20.908Z,1.25
2023-01-22T11:44:55.808Z,1.48
2023-01-22T11:47:48.391Z,1.10
2023-01-22T11:50:23.074Z,1.23
2023-01-22T11:52:55.177Z,1.05
2023-01-22T11:55:33.527Z,1.15
2023-01-22T11:58:06.722Z,1.58
2023-01-22T12:00:40.833Z,1.52
2023-01-22T12:03:21.767Z,1.83
2023-01-22T12:05:57.365Z,2.60
2023-01-22T12:08:32.676Z,2.80
2023-01-22T12:11:12.068Z,3.65
2023-01-22T12:13:47.936Z,4.90
2023-01-22T12:16:20.312Z,6.85
2023-01-22T12:19:11.573Z,8.30
2023-01-22T12:21:46.137Z,8.75
2023-01-22T12:24:17.137Z,8.57
2023-01-22T12:26:48.621Z,7.45
2023-01-22T12:29:20.391Z,7.95
2023-01-22T12:31:51.141Z,7.10
2023-01-22T12:34:22.676Z,7.93
2023-01-22T12:36:58.292Z,7.15
2023-01-22T12:39:28.553Z,6.93
2023-01-22T12:42:03.139Z,6.38
2023-01-22T12:44:36.284Z,6.65
2023-01-22T12:47:09.450Z,6.20
2023-01-22T12:49:47.039Z,6.15
2023-01-22T12:52:33.571Z,6.43
2023-01-22T12:55:02.428Z,5.57
2023-01-22T12:57:38.382Z,5.22
2023-01-22T13:00:14.994Z,5.47
2023-01-22T13:02:43.472Z,4.88
2023-01-22T13:05:13.344Z,4.80
2023-01-22T13:07:43.715Z,5.45
2023-01-22T13:10:25.695Z,5.38
2023-01-22T13:12:55.131Z,4.75
2023-01-22T13:15:24.819Z,4.40
2023-01-22T13:18:06.284Z,4.88
2023-01-22T13:20:37.110Z,5.35
2023-01-22T13:23:08.662Z,5.05
2023-01-22T13:25:37.189Z,4.35
2023-01-22T13:28:06.157Z,4.53
2023-01-22T13:30:34.796Z,4.20
2023-01-22T13:33:07.572Z,3.92
2023-01-22T13:35:39.462Z,3.72
2023-01-22T13:38:17.484Z,3.60
2023-01-22T13:40:51.258Z,3.38
2023-01-22T13:43:22.797Z,3.38
2023-01-22T13:45:51.802Z,3.42
2023-01-22T13:48:21.527Z,3.20
2023-01-22T13:50:54.323Z,2.90
2023-01-22T13:53:30.538Z,2.90
2023-01-22T13:55:59.929Z,3.00
2023-01-22T13:58:46.687Z,2.60
2023-01-22T14:01:27.799Z,2.72
2023-01-22T14:06:28.002Z,2.53
2023-01-22T14:08:58.769Z,2.42
2023-01-22T14:11:27.268Z,2.60
2023-01-22T14:13:55.752Z,2.85
2023-01-22T14:16:24.425Z,2.78
2023-01-22T14:18:52.960Z,2.30
2023-01-22T14:21:21.568Z,2.58
2023-01-22T14:23:50.027Z,2.35
2023-01-22T14:26:21.063Z,2.13
2023-01-22T14:28:49.567Z,2.17
2023-01-22T14:31:18.089Z,2.08
2023-01-22T14:33:46.570Z,2.70
2023-01-22T14:36:15.066Z,2.10
2023-01-22T14:38:43.556Z,2.08
2023-01-22T14:41:12.063Z,2.33
2023-01-22T14:43:41.946Z,2.15
2023-01-22T14:46:10.516Z,2.70
2023-01-22T14:48:40.813Z,2.25
2023-01-22T14:51:10.116Z,2.33
2023-01-22T14:53:38.748Z,2.43
2023-01-22T14:56:07.282Z,2.30
2023-01-22T14:58:36.369Z,2.38
2023-01-22T15:01:16.793Z,2.30
2023-01-22T15:03:45.307Z,2.00
2023-01-22T15:06:13.775Z,2.35
2023-01-22T15:08:42.298Z,1.88
2023-01-22T15:11:10.911Z,1.92
2023-01-22T15:13:39.911Z,1.98
2023-01-22T15:16:10.516Z,2.10
2023-01-22T15:18:40.843Z,2.08
2023-01-22T15:21:09.594Z,2.10
2023-01-22T15:23:38.123Z,2.42
2023-01-22T15:26:09.601Z,1.90
2023-01-22T15:28:38.520Z,2.40
2023-01-22T15:31:08.889Z,2.00
2023-01-22T15:33:37.586Z,2.03
2023-01-22T15:36:07.961Z,2.00
2023-01-22T15:38:36.449Z,2.58
2023-01-22T15:41:05.781Z,2.55
2023-01-22T15:43:34.285Z,2.15
2023-01-22T15:46:03.273Z,2.55
2023-01-22T15:48:32.388Z,2.33
2023-01-22T15:51:09.510Z,2.00
2023-01-22T15:53:38.123Z,2.47
2023-01-22T15:56:06.861Z,2.47
2023-01-22T15:58:37.011Z,2.30
2023-01-22T16:01:06.275Z,2.20
2023-01-22T16:03:34.553Z,2.20
2023-01-22T16:06:10.875Z,2.20
2023-01-22T16:08:39.417Z,2.40
2023-01-22T16:11:08.481Z,2.30
2023-01-22T16:13:37.361Z,1.55
2023-01-22T16:16:07.236Z,2.30
2023-01-22T16:18:36.700Z,2.10
2023-01-22T16:21:05.981Z,1.92
2023-01-22T16:23:37.417Z,2.47
2023-01-22T16:26:09.508Z,2.40
2023-01-22T16:28:38.066Z,2.15
2023-01-22T16:31:07.173Z,2.28
2023-01-22T16:33:36.559Z,1.90
2023-01-22T16:36:06.097Z,2.10
2023-01-22T16:38:36.572Z,2.42
2023-01-22T16:41:09.652Z,1.60
2023-01-22T16:43:38.644Z,1.67
2023-01-22T16:46:07.007Z,2.10
2023-01-22T16:48:35.541Z,1.98
2023-01-22T16:51:04.054Z,1.88
2023-01-22T16:53:32.609Z,2.22
2023-01-22T16:56:02.499Z,2.00
2023-01-22T16:58:30.976Z,1.90
2023-01-22T17:00:59.454Z,1.63
2023-01-22T17:03:28.022Z,1.90
2023-01-22T17:05:56.506Z,1.98
2023-01-22T17:08:24.994Z,2.03
2023-01-22T17:10:53.454Z,1.80
2023-01-22T17:13:23.666Z,1.80
2023-01-22T17:15:53.675Z,1.90
2023-01-22T17:21:01.619Z,1.60
2023-01-22T17:23:31.424Z,2.10
2023-01-22T17:25:59.655Z,1.57
2023-01-22T17:28:29.564Z,1.88
2023-01-22T17:30:58.155Z,1.77
2023-01-22T17:33:26.897Z,1.75
2023-01-22T17:35:59.526Z,1.75
2023-01-22T17:38:29.531Z,1.83
2023-01-22T17:43:26.172Z,1.88
2023-01-22T17:45:56.058Z,1.70
2023-01-22T17:48:24.550Z,1.50
2023-01-22T17:50:53.033Z,2.00
2023-01-22T17:53:21.539Z,2.00
2023-01-22T17:55:50.022Z,2.10
2023-01-22T17:58:18.824Z,2.05
2023-01-22T18:00:47.292Z,2.03
2023-01-22T18:03:17.148Z,1.65
2023-01-22T18:05:45.737Z,2.28
2023-01-22T18:08:14.630Z,1.95
2023-01-22T18:10:43.181Z,2.33
2023-01-22T18:13:11.633Z,2.10
2023-01-22T18:15:42.591Z,2.22
2023-01-22T18:18:11.153Z,2.17
2023-01-22T18:20:44.328Z,1.92
2023-01-22T18:23:12.934Z,2.30
2023-01-22T18:25:46.867Z,1.90
2023-01-22T18:28:15.431Z,1.85
2023-01-22T18:30:45.130Z,1.92
2023-01-22T18:33:14.942Z,2.08
2023-01-22T18:35:45.233Z,2.08
2023-01-22T18:38:13.784Z,2.03
2023-01-22T18:40:42.375Z,2.03
2023-01-22T18:43:11.340Z,2.20
2023-01-22T18:45:41.267Z,2.08
2023-01-22T18:48:11.079Z,2.20
2023-01-22T18:50:39.621Z,4.60
2023-01-22T18:53:09.819Z,5.57
2023-01-22T18:55:38.378Z,4.35
2023-01-22T18:58:11.503Z,4.22
2023-01-22T19:00:39.994Z,4.05
2023-01-22T19:03:09.428Z,4.35
2023-01-22T19:05:40.658Z,4.40
2023-01-22T19:08:10.517Z,4.15
2023-01-22T19:10:39.003Z,3.80
2023-01-22T19:13:07.476Z,3.67
2023-01-22T19:15:36.005Z,3.65
2023-01-22T19:18:04.498Z,3.72
2023-01-22T19:20:33.010Z,3.83
2023-01-22T19:23:01.459Z,3.58
2023-01-22T19:25:31.778Z,3.70
2023-01-22T19:28:00.484Z,3.33
2023-01-22T19:30:29.598Z,3.58
2023-01-22T19:32:58.098Z,3.40
2023-01-22T19:35:26.604Z,3.60
2023-01-22T19:37:55.069Z,4.15
2023-01-22T19:40:23.551Z,3.83
2023-01-22T19:42:53.424Z,4.43
2023-01-22T19:45:21.921Z,4.85
2023-01-22T19:47:50.410Z,4.40
2023-01-22T19:50:18.954Z,4.18
2023-01-22T19:52:47.462Z,3.83
2023-01-22T19:55:16.077Z,4.30
2023-01-22T19:57:44.585Z,7.28
2023-01-22T20:00:15.105Z,5.78
2023-01-22T20:02:43.589Z,5.03
2023-01-22T20:05:12.097Z,3.85
2023-01-22T20:07:40.590Z,3.38
2023-01-22T20:10:09.534Z,3.05
2023-01-22T20:12:38.003Z,2.72
2023-01-22T20:15:07.330Z,2.25
2023-01-22T20:17:37.302Z,1.88
2023-01-22T20:22:34.387Z,1.60
2023-01-22T20:25:03.334Z,1.00
2023-01-22T20:27:31.857Z,1.15
2023-01-22T20:30:00.366Z,0.95
2023-01-22T20:32:30.694Z,0.63
2023-01-22T20:35:00.761Z,0.73
2023-01-22T20:39:58.885Z,0.45
2023-01-22T20:44:58.312Z,0.50
2023-01-22T20:47:26.851Z,0.40
2023-01-22T20:49:55.357Z,0.30
2023-01-22T20:52:25.969Z,0.30
2023-01-22T20:55:01.347Z,0.30
2023-01-22T20:57:30.527Z,0.20
2023-01-22T20:59:59.139Z,0.20
2023-01-22T21:02:27.736Z,0.20
2023-01-22T21:04:56.601Z,0.20
2023-01-22T21:07:26.465Z,0.20
2023-01-22T21:09:54.949Z,0.15
2023-01-22T21:12:24.144Z,0.20
2023-01-22T21:14:55.689Z,0.17
2023-01-22T21:17:24.198Z,0.10
2023-01-22T21:19:52.782Z,0.20
2023-01-22T21:22:21.259Z,0.20
2023-01-22T21:24:51.160Z,0.10
2023-01-22T21:27:20.184Z,0.10
2023-01-22T21:29:50.433Z,0.10
2023-01-22T21:32:19.227Z,0.15
2023-01-22T21:34:48.262Z,0.20
2023-01-22T21:37:17.129Z,0.10
2023-01-22T21:39:45.639Z,0.10
2023-01-22T21:42:33.314Z,2.65
2023-01-22T21:45:19.245Z,1.50
2023-01-22T21:47:47.708Z,1.00
2023-01-22T21:50:17.196Z,1.23
2023-01-22T21:52:47.643Z,1.10
2023-01-22T21:55:17.513Z,1.10
2023-01-22T21:57:47.397Z,1.17
2023-01-22T22:00:16.563Z,1.00
2023-01-22T22:02:45.330Z,1.00
2023-01-22T22:05:14.278Z,1.17
2023-01-22T22:07:43.759Z,1.00
2023-01-22T22:10:14.804Z,1.00
2023-01-22T22:12:43.698Z,1.00
2023-01-22T22:15:13.708Z,1.00
2023-01-22T22:17:45.105Z,0.90
2023-01-22T22:20:13.970Z,0.80
2023-01-22T22:22:42.424Z,1.02
2023-01-22T22:25:11.494Z,0.90
2023-01-22T22:27:39.976Z,0.90
2023-01-22T22:30:09.132Z,0.70
2023-01-22T22:32:39.047Z,1.30
2023-01-22T22:35:07.938Z,0.80
2023-01-22T22:37:37.350Z,0.93
2023-01-22T22:40:06.173Z,1.05
2023-01-22T22:42:34.679Z,0.98
2023-01-22T22:45:03.348Z,0.80
2023-01-22T22:47:31.835Z,0.90
2023-01-22T22:50:01.692Z,1.00
2023-01-22T22:52:31.104Z,0.90
2023-01-22T22:54:59.547Z,0.98
2023-01-22T22:57:28.193Z,0.95
2023-01-22T22:59:56.707Z,0.95
2023-01-22T23:02:25.210Z,0.95
2023-01-22T23:04:53.731Z,0.90
2023-01-22T23:07:23.625Z,0.93
2023-01-22T23:09:52.093Z,0.80
2023-01-22T23:12:20.598Z,1.00
2023-01-22T23:14:49.100Z,1.00
2023-01-22T23:17:17.621Z,1.05
2023-01-22T23:19:46.092Z,1.02
2023-01-22T23:22:14.846Z,1.10
2023-01-22T23:24:46.601Z,0.90
2023-01-22T23:27:15.082Z,0.95
2023-01-22T23:29:43.579Z,0.85
2023-01-22T23:32:12.097Z,1.00
2023-01-22T23:34:41.350Z,0.90
2023-01-22T23:37:09.865Z,1.00
2023-01-22T23:39:38.908Z,0.82
2023-01-22T23:42:10.442Z,1.20
2023-01-22T23:44:38.944Z,0.90
2023-01-22T23:47:07.475Z,1.10
2023-01-22T23:49:36.175Z,1.20
2023-01-22T23:52:04.878Z,1.10
2023-01-22T23:54:33.323Z,0.98
2023-01-22T23:57:01.796Z,1.13
2023-01-22T23:59:31.631Z,0.90
